createdAt,value
2022-09-20T00:03:15.586Z,0.1505016722408027
2022-09-20T00:09:42.530Z,0.3311036789297659
2022-09-20T00:16:10.273Z,0.30434782608695654
2022-09-20T00:22:37.654Z,0.4013377926421405
2022-09-20T00:29:42.850Z,0.36789297658862874
2022-09-20T00:36:09.771Z,0.3010033444816054
2022-09-20T00:42:36.383Z,0.2040133779264214
2022-09-20T00:49:03.755Z,0.23745819397993312
2022-09-20T00:55:30.903Z,0.2842809364548495
2022-09-20T01:01:58.004Z,0.2809364548494983
2022-09-20T01:08:26.023Z,0.6053511705685619
2022-09-20T01:19:46.039Z,0.3411371237458194
2022-09-20T01:26:21.479Z,0.6454849498327759
2022-09-20T01:32:48.783Z,0.6655518394648829
2022-09-20T01:39:16.023Z,0.2040133779264214
2022-09-20T01:45:43.308Z,0.4782608695652174
2022-09-20T01:57:10.321Z,0.0
2022-09-20T02:03:37.407Z,0.046822742474916385
2022-09-20T02:10:05.344Z,0.0
2022-09-20T02:16:32.119Z,0.0802675585284281
2022-09-20T02:23:05.405Z,0.030100334448160536
2022-09-20T02:29:32.633Z,0.010033444816053512
2022-09-20T02:36:00.918Z,0.016722408026755852
2022-09-20T02:42:28.470Z,0.1705685618729097
2022-09-20T02:54:55.770Z,1.2441471571906355
2022-09-20T03:01:23.532Z,0.17391304347826086
2022-09-20T03:10:27.199Z,0.3511705685618729
2022-09-20T03:16:54.713Z,0.25752508361204013
2022-09-20T03:23:31.046Z,0.2709030100334448
2022-09-20T03:29:58.924Z,0.451505016722408
2022-09-20T03:36:26.063Z,0.2809364548494983
2022-09-20T03:42:53.341Z,0.2809364548494983
2022-09-20T03:51:09.872Z,0.5484949832775919
2022-09-20T03:57:37.021Z,0.026755852842809364
2022-09-20T04:04:04.590Z,0.34782608695652173
2022-09-20T04:10:31.868Z,0.20735785953177258
2022-09-20T04:20:43.171Z,0.18394648829431437
2022-09-20T04:27:40.950Z,0.43478260869565216
2022-09-20T04:34:08.219Z,0.19732441471571907
2022-09-20T04:40:36.725Z,0.3411371237458194
2022-09-20T04:47:07.741Z,0.11705685618729098
2022-09-20T04:56:39.648Z,0.7792642140468228
2022-09-20T05:03:08.263Z,1.9096989966555185
2022-09-20T05:09:36.379Z,1.160535117056856
2022-09-20T05:16:03.774Z,0.7892976588628763
2022-09-20T05:28:36.392Z,1.1070234113712374
2022-09-20T05:35:03.824Z,2.5652173913043477
2022-09-20T05:44:09.123Z,1.3277591973244147
2022-09-20T05:52:22.969Z,1.3076923076923077
2022-09-20T05:58:50.415Z,1.3979933110367893
2022-09-20T06:05:17.854Z,1.9632107023411371
2022-09-20T06:11:46.742Z,1.9698996655518395
2022-09-20T06:20:14.074Z,1.3612040133779264
2022-09-20T06:26:50.766Z,1.3076923076923077
2022-09-20T06:33:30.847Z,0.9331103678929766
2022-09-20T06:39:58.669Z,0.6722408026755853
2022-09-20T06:46:33.514Z,0.6354515050167224
2022-09-20T06:54:15.906Z,0.9464882943143813
2022-09-20T07:01:29.644Z,0.4816053511705686
2022-09-20T07:08:00.370Z,0.6889632107023411
2022-09-20T07:14:27.624Z,0.7792642140468228
2022-09-20T07:20:55.033Z,1.3377926421404682
2022-09-20T07:27:29.313Z,1.6789297658862876
2022-09-20T07:33:57.260Z,1.62876254180602
2022-09-20T07:44:40.911Z,3.6555183946488294
2022-09-20T07:51:09.131Z,4.735785953177258
2022-09-20T07:57:36.662Z,6.20066889632107
2022-09-20T08:04:05.163Z,2.3377926421404682
2022-09-20T08:10:32.744Z,1.4046822742474916
2022-09-20T08:23:23.287Z,0.45819397993311034
2022-09-20T08:29:50.801Z,0.4682274247491639
2022-09-20T08:36:18.242Z,1.1471571906354514
2022-09-20T08:42:46.404Z,0.6789297658862876
2022-09-20T08:49:14.364Z,0.8862876254180602
2022-09-20T08:55:42.093Z,0.35451505016722407
2022-09-20T09:02:10.153Z,1.7357859531772575
2022-09-20T09:10:42.527Z,0.17391304347826086
2022-09-20T09:17:10.247Z,0.046822742474916385
2022-09-20T09:23:45.258Z,0.08361204013377926
2022-09-20T09:30:12.510Z,0.05016722408026756
2022-09-20T09:38:02.873Z,0.033444816053511704
2022-09-20T09:44:30.410Z,0.15384615384615385
2022-09-20T09:50:58.000Z,0.27759197324414714
2022-09-20T09:57:25.774Z,0.26755852842809363
2022-09-20T10:03:53.135Z,0.7224080267558528
2022-09-20T10:12:57.212Z,1.4080267558528428
2022-09-20T10:19:24.555Z,6.6120401337792645
2022-09-20T10:32:31.942Z,3.82943143812709
2022-09-20T10:38:59.759Z,5.538461538461538
2022-09-20T10:45:59.220Z,1.3645484949832776
2022-09-20T10:52:31.274Z,0.6755852842809364
2022-09-20T10:58:58.279Z,0.22408026755852842
2022-09-20T11:17:51.632Z,4.906354515050167
2022-09-20T11:24:26.604Z,2.839464882943144
2022-09-20T11:30:54.282Z,4.468227424749164
2022-09-20T11:37:21.825Z,1.8729096989966556
2022-09-20T11:43:49.088Z,0.33444816053511706
2022-09-20T11:50:17.249Z,0.7993311036789298
2022-09-20T12:01:24.966Z,1.2408026755852843
2022-09-20T12:07:55.525Z,0.3779264214046823
2022-09-20T12:14:23.186Z,0.25418060200668896
2022-09-20T12:22:26.405Z,0.2809364548494983
2022-09-20T12:30:29.280Z,0.7759197324414716
2022-09-20T12:39:32.544Z,0.35785953177257523
2022-09-20T12:46:05.356Z,0.4280936454849498
2022-09-20T12:52:33.610Z,0.2842809364548495
2022-09-20T12:59:00.765Z,0.2040133779264214
2022-09-20T13:05:28.558Z,0.08695652173913043
2022-09-20T13:12:02.808Z,0.31438127090301005
2022-09-20T13:18:30.388Z,0.5785953177257525
2022-09-20T13:25:06.761Z,0.29431438127090304
2022-09-20T13:31:34.043Z,0.35451505016722407
2022-09-20T13:43:53.833Z,0.07692307692307693
2022-09-20T13:50:20.927Z,0.16387959866220736
2022-09-20T13:56:48.616Z,0.26421404682274247
2022-09-20T14:03:16.848Z,0.2608695652173913
2022-09-20T14:09:43.995Z,0.13712374581939799
2022-09-20T14:16:11.751Z,0.29431438127090304
2022-09-20T14:22:44.753Z,0.2909698996655518
2022-09-20T14:29:11.964Z,0.38461538461538464
2022-09-20T14:35:39.882Z,0.31438127090301005
2022-09-20T14:42:07.745Z,0.5150501672240803
2022-09-20T14:48:35.429Z,0.6822742474916388
2022-09-20T14:55:02.774Z,0.4214046822742475
2022-09-20T15:01:30.006Z,0.15719063545150502
2022-09-20T15:07:56.958Z,0.6822742474916388
2022-09-20T15:19:34.007Z,0.33444816053511706
2022-09-20T15:26:07.783Z,0.4180602006688963
2022-09-20T15:32:34.689Z,0.33444816053511706
2022-09-20T15:39:01.601Z,0.862876254180602
2022-09-20T15:45:29.637Z,2.0434782608695654
2022-09-20T15:51:57.635Z,2.4816053511705687
2022-09-20T15:58:56.083Z,1.391304347826087
2022-09-20T16:11:53.845Z,0.4682274247491639
2022-09-20T16:18:22.721Z,0.5117056856187291
2022-09-20T16:25:02.244Z,0.6220735785953178
2022-09-20T16:31:30.708Z,1.0635451505016722
2022-09-20T16:46:18.194Z,0.4414715719063545
2022-09-20T16:52:45.345Z,0.32441471571906355
2022-09-20T16:59:12.467Z,1.2876254180602007
2022-09-20T17:05:39.824Z,1.0903010033444815
2022-09-20T17:16:45.996Z,1.3779264214046822
2022-09-20T17:33:44.927Z,1.6521739130434783
2022-09-20T17:40:13.025Z,2.250836120401338
2022-09-20T17:46:40.896Z,2.9264214046822743
2022-09-20T17:55:51.423Z,2.3545150501672243
2022-09-20T18:04:59.287Z,4.207357859531773
2022-09-20T18:15:31.233Z,3.8127090301003346
2022-09-20T18:21:59.887Z,4.461538461538462
2022-09-20T18:28:35.052Z,3.9464882943143813
2022-09-20T18:35:02.952Z,4.327759197324415
2022-09-20T18:43:55.998Z,4.478260869565218
2022-09-20T18:53:00.692Z,3.7725752508361206
2022-09-20T19:04:50.288Z,5.62876254180602
2022-09-20T19:11:18.294Z,5.237458193979933
2022-09-20T19:17:46.487Z,5.762541806020067
2022-09-20T19:24:20.604Z,6.016722408026756
2022-09-20T19:30:49.415Z,6.719063545150502
2022-09-20T19:38:41.779Z,5.545150501672241
2022-09-20T19:51:34.321Z,6.130434782608695
2022-09-20T19:58:35.517Z,5.79933110367893
2022-09-20T20:05:21.343Z,6.294314381270903
2022-09-20T20:11:57.218Z,5.551839464882943
2022-09-20T20:29:43.092Z,5.966555183946488
2022-09-20T20:40:42.644Z,6.745819397993311
2022-09-20T20:47:13.358Z,7.016722408026756
2022-09-20T20:53:41.609Z,7.327759197324415
2022-09-20T21:00:09.402Z,7.1404682274247495
2022-09-20T21:06:39.489Z,7.023411371237458
2022-09-20T21:13:09.435Z,6.672240802675585
2022-09-20T21:19:36.876Z,7.003344481605351
2022-09-20T21:31:22.668Z,7.816053511705686
2022-09-20T21:37:51.598Z,7.745819397993311
2022-09-20T21:49:57.271Z,7.866220735785953
2022-09-20T22:08:33.503Z,7.2207357859531776
2022-09-20T22:15:01.265Z,7.8193979933110365
2022-09-20T22:21:31.073Z,7.896321070234114
2022-09-20T22:28:10.036Z,7.705685618729097
2022-09-20T22:36:55.599Z,9.277591973244148
2022-09-20T22:44:52.361Z,8.702341137123746
2022-09-20T22:51:20.603Z,8.816053511705686
2022-09-20T23:00:50.504Z,10.010033444816054
2022-09-20T23:07:19.485Z,10.926421404682275
2022-09-20T23:13:47.419Z,10.645484949832776
2022-09-20T23:20:15.668Z,11.264214046822742
2022-09-20T23:26:49.520Z,12.25418060200669
2022-09-20T23:33:17.651Z,12.167224080267559
2022-09-20T23:39:45.993Z,11.588628762541806
2022-09-20T23:51:37.774Z,12.157190635451505
